Time;durP1;ratioP1;P1;durP2;ratioP2;P2;SDS_P1;SDS_P2;PMS_P1;PMS_P2;Temp;Humidity;BMP_temperature;BMP_pressure;BME280_temperature;BME280_humidity;BME280_pressure;Samples;Min_cycle;Max_cycle;Signal;HPM_P1;HPM_P2
2023/05/09 00:01:30;;;;;;;76.28;33.20;;;17.60;99.90;;;;;;5099743;28;20040;-73
2023/05/09 00:03:57;;;;;;;70.07;32.13;;;17.50;99.90;;;;;;5099722;28;20131;-73
2023/05/09 00:06:24;;;;;;;58.25;29.48;;;17.60;99.90;;;;;;5099762;28;20044;-73
2023/05/09 00:08:50;;;;;;;87.57;35.97;;;17.70;99.90;;;;;;5099928;28;20048;-73
2023/05/09 00:11:16;;;;;;;60.83;30.92;;;17.70;99.90;;;;;;5099711;28;20044;-73
2023/05/09 00:13:43;;;;;;;62.67;30.52;;;17.80;99.90;;;;;;5099918;28;20096;-73
2023/05/09 00:16:09;;;;;;;92.55;35.00;;;17.70;99.90;;;;;;5099843;28;20094;-73
2023/05/09 00:18:36;;;;;;;65.85;31.25;;;17.70;99.90;;;;;;5099832;28;20083;-73
2023/05/09 00:21:03;;;;;;;53.55;28.92;;;17.80;99.90;;;;;;5099733;28;20075;-73
2023/05/09 00:23:29;;;;;;;57.95;29.30;;;17.80;99.90;;;;;;5099727;28;20036;-73
2023/05/09 00:25:55;;;;;;;64.55;29.88;;;17.80;99.90;;;;;;5099425;28;20044;-73
2023/05/09 00:28:21;;;;;;;64.60;31.15;;;17.80;99.90;;;;;;5099643;28;20032;-73
2023/05/09 00:30:46;;;;;;;50.83;27.05;;;17.90;99.90;;;;;;5099233;28;20040;-73
2023/05/09 00:33:12;;;;;;;59.42;29.02;;;17.90;99.90;;;;;;5099249;28;20040;-73
2023/05/09 00:40:48;;;;;;;55.75;28.38;;;17.80;99.90;;;;;;5491172;22;20070;-74
2023/05/09 00:43:15;;;;;;;85.75;36.85;;;17.80;99.90;;;;;;4970365;28;20054;-73
2023/05/09 00:45:42;;;;;;;89.25;34.22;;;17.90;99.90;;;;;;4992649;28;20049;-73
2023/05/09 00:48:08;;;;;;;68.30;32.35;;;17.90;99.90;;;;;;4999402;28;20042;-73
2023/05/09 00:50:33;;;;;;;59.53;30.20;;;17.90;99.90;;;;;;4982016;28;20069;-73
2023/05/09 00:52:59;;;;;;;67.38;32.13;;;17.90;99.90;;;;;;4999417;28;20038;-73
2023/05/09 00:55:26;;;;;;;63.90;31.35;;;17.90;99.90;;;;;;4999456;28;20050;-73
2023/05/09 00:57:51;;;;;;;69.20;31.38;;;17.90;99.90;;;;;;4999234;28;20085;-73
2023/05/09 01:00:17;;;;;;;80.95;34.38;;;17.90;99.90;;;;;;4998957;28;20074;-73
2023/05/09 01:02:48;;;;;;;68.95;33.00;;;17.80;99.90;;;;;;4981947;28;20042;-73
2023/05/09 01:05:14;;;;;;;65.90;32.60;;;17.80;99.90;;;;;;4999042;28;20439;-73
2023/05/09 01:07:54;;;;;;;65.47;32.55;;;17.80;99.90;;;;;;4998494;28;20419;-73
2023/05/09 01:10:25;;;;;;;69.88;31.88;;;17.80;99.90;;;;;;4999109;28;20088;-73
2023/05/09 01:13:04;;;;;;;61.78;30.88;;;17.80;99.90;;;;;;4998754;28;20077;-73
2023/05/09 01:15:49;;;;;;;92.97;36.95;;;17.80;99.90;;;;;;4998908;28;20041;-73
2023/05/09 01:18:37;;;;;;;68.18;32.38;;;17.80;99.90;;;;;;4981558;28;20443;-73
2023/05/09 01:21:10;;;;;;;69.32;32.03;;;17.80;99.90;;;;;;4998446;28;20343;-73
2023/05/09 01:23:57;;;;;;;71.63;32.97;;;17.80;99.90;;;;;;4998864;28;20085;-73
2023/05/09 01:26:32;;;;;;;64.20;31.67;;;17.80;99.90;;;;;;4998947;28;20046;-73
2023/05/09 01:29:22;;;;;;;72.13;34.10;;;17.70;99.90;;;;;;4998525;28;20042;-73
2023/05/09 01:31:49;;;;;;;65.15;32.47;;;17.70;99.90;;;;;;4998753;28;20121;-73
2023/05/09 01:34:17;;;;;;;68.22;32.22;;;17.70;99.90;;;;;;4998488;28;20439;-73
2023/05/09 01:36:45;;;;;;;79.88;35.38;;;17.70;99.90;;;;;;4998004;28;20042;-73
2023/05/09 01:39:12;;;;;;;108.35;38.20;;;17.70;99.90;;;;;;4998576;28;20065;-73
2023/05/09 01:41:39;;;;;;;108.95;39.25;;;17.80;99.90;;;;;;4997938;28;20057;-73
2023/05/09 01:44:10;;;;;;;64.97;31.75;;;17.80;99.90;;;;;;4998223;28;20116;-73
2023/05/09 01:46:37;;;;;;;64.60;32.08;;;17.80;99.90;;;;;;4997548;28;20073;-73
2023/05/09 01:49:06;;;;;;;83.95;32.72;;;17.80;99.90;;;;;;4998319;28;20034;-73
2023/05/09 01:51:33;;;;;;;60.05;29.75;;;17.80;99.90;;;;;;4998113;28;20046;-73
2023/05/09 01:54:00;;;;;;;68.63;30.58;;;17.70;99.90;;;;;;4998239;28;20042;-73
2023/05/09 01:56:27;;;;;;;67.10;30.85;;;17.70;99.90;;;;;;4997929;28;20057;-73
2023/05/09 01:58:55;;;;;;;70.22;31.55;;;17.70;99.90;;;;;;4980886;28;20331;-73
2023/05/09 02:01:22;;;;;;;58.03;28.63;;;17.70;99.90;;;;;;4997816;28;20450;-73
2023/05/09 02:03:51;;;;;;;75.18;31.35;;;17.60;99.90;;;;;;4997896;28;20038;-73
2023/05/09 02:06:19;;;;;;;78.22;32.67;;;17.60;99.90;;;;;;4997611;28;20039;-73
2023/05/09 02:08:46;;;;;;;59.35;31.13;;;17.60;99.90;;;;;;4997810;28;20057;-73
2023/05/09 02:11:11;;;;;;;67.35;31.75;;;17.60;99.90;;;;;;4997716;28;20047;-73
2023/05/09 02:13:37;;;;;;;63.10;30.38;;;17.60;99.90;;;;;;4997979;28;20044;-73
2023/05/09 02:16:05;;;;;;;68.75;32.15;;;17.50;99.90;;;;;;4997804;28;20042;-73
2023/05/09 02:18:31;;;;;;;91.35;35.95;;;17.50;99.90;;;;;;4997795;28;20121;-73
2023/05/09 02:20:57;;;;;;;74.88;34.13;;;17.50;99.90;;;;;;4997655;28;20137;-73
2023/05/09 02:23:22;;;;;;;86.82;36.08;;;17.50;99.90;;;;;;4997860;28;20459;-73
2023/05/09 02:25:49;;;;;;;90.20;35.40;;;17.50;99.90;;;;;;4997433;28;20038;-73
2023/05/09 02:28:17;;;;;;;73.25;31.60;;;17.50;99.90;;;;;;4997534;28;20049;-73
2023/05/09 02:30:46;;;;;;;65.20;31.63;;;17.60;99.90;;;;;;4997412;28;20427;-73
2023/05/09 02:33:12;;;;;;;58.50;28.13;;;17.60;99.90;;;;;;4997581;28;20046;-73
2023/05/09 02:35:41;;;;;;;58.80;27.45;;;17.50;99.90;;;;;;4997016;28;20110;-81
2023/05/09 02:38:07;;;;;;;55.15;27.83;;;17.50;99.90;;;;;;4997423;28;20043;-73
2023/05/09 02:40:33;;;;;;;61.40;29.67;;;17.50;99.90;;;;;;4997297;28;20046;-73
2023/05/09 02:42:59;;;;;;;61.78;29.98;;;17.50;99.90;;;;;;4997490;28;20038;-73
2023/05/09 02:45:25;;;;;;;68.38;32.85;;;17.50;99.90;;;;;;4980238;28;20335;-73
2023/05/09 02:47:50;;;;;;;63.60;30.85;;;17.50;99.90;;;;;;4997277;28;20147;-73
2023/05/09 02:50:16;;;;;;;57.92;28.98;;;17.50;99.90;;;;;;4997175;28;20045;-73
2023/05/09 02:52:42;;;;;;;61.80;29.73;;;17.60;99.90;;;;;;4997043;28;20054;-74
2023/05/09 02:55:08;;;;;;;65.78;31.75;;;17.60;99.90;;;;;;4997180;28;20070;-73
2023/05/09 02:57:34;;;;;;;63.30;30.30;;;17.60;99.90;;;;;;4997022;28;20050;-73
2023/05/09 03:00:00;;;;;;;60.10;31.05;;;17.60;99.90;;;;;;4996866;28;20423;-73
2023/05/09 03:02:26;;;;;;;64.00;29.92;;;17.60;99.90;;;;;;4997429;28;20125;-73
2023/05/09 03:04:51;;;;;;;58.53;29.20;;;17.50;99.90;;;;;;4980082;28;20130;-73
2023/05/09 03:07:17;;;;;;;53.30;27.50;;;17.50;99.90;;;;;;4996593;28;20052;-75
2023/05/09 03:09:43;;;;;;;58.00;28.90;;;17.50;99.90;;;;;;4997188;28;20414;-73
2023/05/09 03:12:09;;;;;;;53.30;26.50;;;17.50;99.90;;;;;;4997185;28;20038;-74
2023/05/09 03:14:35;;;;;;;61.88;30.52;;;17.60;99.90;;;;;;4997000;28;20057;-73
2023/05/09 03:17:01;;;;;;;73.80;33.33;;;17.60;99.90;;;;;;4997159;28;20056;-73
2023/05/09 03:19:26;;;;;;;70.45;31.30;;;17.60;99.90;;;;;;4997046;28;20030;-73
2023/05/09 03:21:52;;;;;;;64.18;31.40;;;17.60;99.90;;;;;;4996865;28;20053;-73
2023/05/09 03:24:17;;;;;;;75.72;34.13;;;17.60;99.90;;;;;;4996682;28;20131;-73
2023/05/09 03:26:43;;;;;;;64.15;31.85;;;17.60;99.90;;;;;;4979997;28;20074;-73
2023/05/09 03:29:09;;;;;;;77.22;33.55;;;17.60;99.90;;;;;;4996840;28;20045;-73
2023/05/09 03:31:35;;;;;;;59.95;29.65;;;17.60;99.90;;;;;;4996695;28;20077;-73
2023/05/09 03:34:00;;;;;;;58.97;29.60;;;17.60;99.90;;;;;;4997048;28;20427;-73
2023/05/09 03:36:26;;;;;;;60.40;28.33;;;17.50;99.90;;;;;;4996354;28;20331;-74
2023/05/09 03:38:52;;;;;;;77.28;32.72;;;17.50;99.90;;;;;;4996934;28;20132;-73
2023/05/09 03:41:17;;;;;;;78.07;34.28;;;17.60;99.90;;;;;;4996396;28;20447;-73
2023/05/09 03:43:44;;;;;;;64.65;31.15;;;17.60;99.90;;;;;;4996989;28;20042;-73
2023/05/09 03:46:09;;;;;;;68.30;32.97;;;17.60;99.90;;;;;;4996778;28;20045;-73
2023/05/09 03:48:35;;;;;;;82.20;35.03;;;17.50;99.90;;;;;;4996911;28;20125;-73
2023/05/09 03:51:01;;;;;;;75.15;33.25;;;17.50;99.90;;;;;;4996650;28;20035;-73
2023/05/09 03:53:27;;;;;;;62.72;30.77;;;17.60;99.90;;;;;;4996590;28;20414;-73
2023/05/09 03:55:53;;;;;;;58.55;29.25;;;17.50;99.90;;;;;;4996649;28;20074;-73
2023/05/09 03:58:18;;;;;;;65.75;31.30;;;17.60;99.90;;;;;;4996480;28;20481;-74
2023/05/09 04:00:45;;;;;;;74.25;33.78;;;17.50;99.90;;;;;;4996752;28;20042;-73
2023/05/09 04:03:10;;;;;;;81.13;33.17;;;17.60;99.90;;;;;;4996593;28;20419;-74
2023/05/09 04:05:36;;;;;;;75.07;34.97;;;17.50;99.90;;;;;;4979630;28;20121;-73
2023/05/09 04:08:03;;;;;;;79.07;35.35;;;17.60;99.90;;;;;;4992489;28;20026;-75
2023/05/09 04:10:32;;;;;;;63.13;30.58;;;17.50;99.90;;;;;;4996205;28;20034;-73
2023/05/09 04:12:57;;;;;;;82.68;35.45;;;17.60;99.90;;;;;;4982969;28;20070;-73
2023/05/09 04:15:23;;;;;;;78.50;36.72;;;17.60;99.90;;;;;;5000165;28;20396;-73
2023/05/09 04:17:49;;;;;;;74.10;34.53;;;17.50;99.90;;;;;;4999861;28;20074;-73
2023/05/09 04:20:15;;;;;;;81.32;37.53;;;17.60;99.90;;;;;;4999792;28;20121;-73
2023/05/09 04:22:40;;;;;;;86.68;39.78;;;17.50;99.90;;;;;;4999659;28;20038;-74
2023/05/09 04:25:11;;;;;;;69.55;35.20;;;17.50;99.90;;;;;;5000036;28;20069;-74
2023/05/09 04:27:37;;;;;;;68.93;34.80;;;17.60;99.90;;;;;;4999959;28;20042;-74
2023/05/09 04:30:03;;;;;;;66.63;35.67;;;17.60;99.90;;;;;;4999797;28;20085;-74
2023/05/09 04:32:28;;;;;;;96.40;44.42;;;17.60;99.90;;;;;;4999917;28;20085;-73
2023/05/09 04:34:54;;;;;;;104.85;43.75;;;17.60;99.90;;;;;;4999812;28;20388;-75
2023/05/09 04:37:20;;;;;;;82.68;39.80;;;17.50;99.90;;;;;;4998973;28;20304;-73
2023/05/09 04:39:45;;;;;;;76.80;38.53;;;17.60;99.90;;;;;;4999360;28;20039;-73
2023/05/09 04:42:11;;;;;;;83.55;39.85;;;17.60;99.90;;;;;;4999290;28;20435;-73
2023/05/09 04:44:37;;;;;;;79.72;38.75;;;17.60;99.90;;;;;;4982045;28;20035;-73
2023/05/09 04:47:03;;;;;;;81.68;39.72;;;17.50;99.90;;;;;;4999536;28;20038;-74
2023/05/09 04:49:28;;;;;;;86.28;40.92;;;17.60;99.90;;;;;;4999271;28;20035;-74
2023/05/09 04:51:54;;;;;;;81.75;39.00;;;17.60;99.90;;;;;;4999161;28;20084;-74
2023/05/09 04:54:20;;;;;;;113.03;45.67;;;17.70;99.90;;;;;;4999487;28;20050;-73
2023/05/09 04:56:45;;;;;;;107.82;46.90;;;17.70;99.90;;;;;;4999307;28;20391;-74
2023/05/09 04:59:11;;;;;;;99.13;45.80;;;17.50;99.90;;;;;;4999427;28;20049;-73
2023/05/09 05:01:37;;;;;;;90.60;45.28;;;17.60;99.90;;;;;;4999150;28;20042;-74
2023/05/09 05:04:02;;;;;;;69.63;38.67;;;17.70;99.90;;;;;;4999247;28;20367;-74
2023/05/09 05:06:28;;;;;;;87.15;42.05;;;17.70;99.90;;;;;;4998467;28;20334;-73
2023/05/09 05:08:54;;;;;;;84.50;42.30;;;17.70;99.90;;;;;;4999261;28;20084;-73
2023/05/09 05:11:20;;;;;;;71.45;38.85;;;17.80;99.90;;;;;;4998862;28;20080;-74
2023/05/09 05:13:46;;;;;;;66.80;37.28;;;17.80;99.90;;;;;;4998810;28;20057;-74
2023/05/09 05:16:11;;;;;;;64.15;38.13;;;17.80;99.90;;;;;;4998789;28;20050;-73
2023/05/09 05:18:37;;;;;;;65.70;37.75;;;17.80;99.90;;;;;;4998590;28;20038;-74
2023/05/09 05:21:03;;;;;;;55.95;34.92;;;17.80;99.90;;;;;;4998353;28;20082;-74
2023/05/09 05:23:28;;;;;;;60.08;36.42;;;17.80;99.90;;;;;;4998814;28;20046;-73
2023/05/09 05:25:54;;;;;;;86.97;41.45;;;17.70;99.90;;;;;;4981658;28;20065;-74
2023/05/09 05:28:20;;;;;;;68.30;37.20;;;17.70;99.90;;;;;;4998688;28;20035;-73
2023/05/09 05:30:45;;;;;;;60.97;36.85;;;17.60;99.90;;;;;;4998793;28;20048;-73
2023/05/09 05:33:11;;;;;;;59.03;34.83;;;17.70;99.90;;;;;;4998466;28;20042;-73
2023/05/09 05:35:37;;;;;;;66.05;37.70;;;17.60;99.90;;;;;;4998457;28;20046;-73
2023/05/09 05:38:02;;;;;;;57.92;34.78;;;17.70;99.90;;;;;;4998037;28;20038;-73
2023/05/09 05:40:28;;;;;;;54.15;34.65;;;17.80;99.90;;;;;;4998327;28;20046;-73
2023/05/09 05:42:54;;;;;;;59.78;35.35;;;17.90;99.90;;;;;;4998183;28;20055;-73
2023/05/09 05:45:20;;;;;;;72.28;39.05;;;18.00;99.90;;;;;;4998376;28;20042;-74
2023/05/09 05:47:46;;;;;;;62.85;34.15;;;18.00;99.90;;;;;;4998472;28;20053;-73
2023/05/09 05:50:11;;;;;;;50.42;31.92;;;17.90;99.90;;;;;;4998223;28;20042;-74
2023/05/09 05:52:38;;;;;;;45.55;29.13;;;18.00;99.90;;;;;;4998447;28;20165;-73
2023/05/09 05:55:04;;;;;;;53.58;30.67;;;18.00;99.90;;;;;;4998046;28;20042;-74
2023/05/09 05:57:30;;;;;;;47.20;29.67;;;17.90;99.90;;;;;;4998276;28;20125;-73
2023/05/09 05:59:56;;;;;;;41.53;26.77;;;18.00;99.90;;;;;;4998030;28;20073;-73
2023/05/09 06:02:22;;;;;;;42.42;27.92;;;18.00;99.90;;;;;;4997957;28;20124;-73
2023/05/09 06:04:47;;;;;;;36.55;23.55;;;18.00;99.90;;;;;;4997856;28;20045;-73
2023/05/09 06:07:13;;;;;;;54.38;29.42;;;18.00;99.90;;;;;;4997471;28;20122;-74
2023/05/09 06:09:39;;;;;;;35.92;24.70;;;18.00;99.90;;;;;;4998054;28;20497;-73
2023/05/09 06:12:05;;;;;;;38.35;25.90;;;18.00;99.90;;;;;;4997692;28;20045;-72
2023/05/09 06:14:31;;;;;;;39.80;25.40;;;17.90;99.90;;;;;;5000440;28;20053;-72
2023/05/09 06:16:58;;;;;;;48.50;27.88;;;17.70;99.90;;;;;;4997945;28;20038;-73
2023/05/09 06:19:24;;;;;;;32.65;23.13;;;17.80;99.90;;;;;;4997542;28;20073;-71
2023/05/09 06:21:49;;;;;;;43.90;27.77;;;17.80;99.90;;;;;;4997580;28;20031;-75
2023/05/09 06:24:15;;;;;;;53.40;31.42;;;17.70;99.90;;;;;;4997679;28;20122;-74
2023/05/09 06:26:41;;;;;;;50.58;30.25;;;17.70;99.90;;;;;;4997661;28;20046;-73
2023/05/09 06:29:06;;;;;;;48.88;29.63;;;17.60;99.90;;;;;;4997664;28;20121;-71
2023/05/09 06:31:37;;;;;;;46.30;29.73;;;17.60;99.90;;;;;;4997492;28;20053;-71
2023/05/09 06:34:03;;;;;;;51.88;30.27;;;17.70;99.90;;;;;;4997080;28;20335;-71
2023/05/09 06:36:29;;;;;;;45.22;28.23;;;17.70;99.90;;;;;;4997247;28;20042;-71
2023/05/09 06:38:55;;;;;;;53.15;30.98;;;17.60;99.90;;;;;;4997148;28;20043;-71
2023/05/09 06:41:21;;;;;;;51.22;27.98;;;17.80;99.90;;;;;;4996965;28;20054;-71
2023/05/09 06:43:47;;;;;;;48.38;30.58;;;17.90;99.90;;;;;;4997354;28;20379;-70
2023/05/09 06:46:12;;;;;;;60.42;33.47;;;18.00;99.90;;;;;;4980088;28;20076;-71
2023/05/09 06:48:38;;;;;;;49.75;31.73;;;18.00;99.90;;;;;;4997158;28;20153;-71
2023/05/09 06:51:04;;;;;;;54.80;31.52;;;17.90;99.90;;;;;;4997098;28;20084;-71
2023/05/09 06:53:29;;;;;;;51.70;29.52;;;17.90;99.90;;;;;;4997388;28;20049;-71
2023/05/09 06:55:55;;;;;;;61.83;34.67;;;17.90;99.90;;;;;;4997149;28;20450;-71
2023/05/09 06:58:21;;;;;;;65.85;34.67;;;17.80;99.90;;;;;;4997359;28;20424;-71
2023/05/09 07:00:47;;;;;;;57.78;31.50;;;17.80;99.90;;;;;;4996879;28;20042;-72
2023/05/09 07:03:13;;;;;;;53.40;32.00;;;17.70;99.90;;;;;;4996935;28;20044;-71
2023/05/09 07:05:38;;;;;;;59.60;32.92;;;17.80;99.90;;;;;;4997334;28;20296;-71
2023/05/09 07:08:04;;;;;;;56.03;31.95;;;17.80;99.90;;;;;;4996776;28;20072;-71
2023/05/09 07:10:30;;;;;;;61.60;33.05;;;17.90;99.90;;;;;;4997058;28;20072;-71
2023/05/09 07:12:56;;;;;;;65.80;34.83;;;18.00;99.90;;;;;;4997008;28;20101;-71
2023/05/09 07:15:21;;;;;;;60.55;32.58;;;17.90;99.90;;;;;;4996959;28;20057;-71
2023/05/09 07:17:47;;;;;;;84.70;39.03;;;17.80;99.90;;;;;;4990801;28;20034;-71
2023/05/09 07:20:13;;;;;;;83.13;40.97;;;17.80;99.90;;;;;;4988458;28;20045;-70
2023/05/09 07:22:38;;;;;;;95.68;43.42;;;17.80;99.90;;;;;;4985869;28;20047;-71
2023/05/09 07:25:07;;;;;;;92.65;41.72;;;17.80;99.90;;;;;;4986795;28;20051;-71
2023/05/09 07:27:33;;;;;;;82.85;40.88;;;17.80;99.90;;;;;;4970583;28;20042;-72
2023/05/09 07:29:58;;;;;;;89.65;42.50;;;17.90;99.90;;;;;;4986004;28;20030;-72
2023/05/09 07:32:27;;;;;;;91.95;42.15;;;17.90;99.90;;;;;;4986451;28;20165;-72
2023/05/09 07:34:53;;;;;;;90.07;40.75;;;18.10;99.90;;;;;;4987626;28;20049;-72
2023/05/09 07:37:19;;;;;;;83.78;40.60;;;18.10;99.90;;;;;;4985063;28;20056;-72
2023/05/09 07:39:46;;;;;;;90.45;42.58;;;17.90;99.90;;;;;;4969023;28;20042;-72
2023/05/09 07:42:12;;;;;;;88.22;41.78;;;17.90;99.90;;;;;;4996389;28;20144;-71
2023/05/09 07:44:38;;;;;;;92.68;41.90;;;17.90;99.90;;;;;;4996775;28;20041;-71
2023/05/09 07:47:04;;;;;;;87.75;43.00;;;18.00;99.90;;;;;;5000379;28;20046;-72
2023/05/09 07:49:33;;;;;;;92.50;44.45;;;18.10;99.90;;;;;;5000705;28;20359;-71
2023/05/09 07:51:59;;;;;;;93.38;45.80;;;18.30;99.90;;;;;;5000443;28;20125;-71
2023/05/09 07:54:25;;;;;;;106.05;46.08;;;18.20;99.90;;;;;;5000605;28;20075;-71
2023/05/09 07:56:51;;;;;;;94.72;45.33;;;18.30;99.90;;;;;;5000264;28;20042;-71
2023/05/09 07:59:17;;;;;;;80.47;41.58;;;18.10;99.90;;;;;;5000289;28;20045;-71
2023/05/09 08:01:43;;;;;;;87.32;42.30;;;18.10;99.90;;;;;;4999927;28;20047;-71
2023/05/09 08:04:09;;;;;;;77.95;41.53;;;18.20;99.90;;;;;;5000041;28;20070;-71
2023/05/09 08:06:35;;;;;;;83.57;42.75;;;18.30;99.90;;;;;;4982645;28;20035;-71
2023/05/09 08:09:01;;;;;;;85.85;43.35;;;18.30;99.90;;;;;;5000145;28;20034;-71
2023/05/09 08:11:27;;;;;;;89.60;45.22;;;18.10;99.90;;;;;;5000285;28;20088;-71
2023/05/09 08:13:53;;;;;;;86.30;43.70;;;18.20;99.90;;;;;;4999887;28;20428;-71
2023/05/09 08:16:19;;;;;;;97.60;45.47;;;18.20;99.90;;;;;;5000165;28;20042;-71
2023/05/09 08:18:45;;;;;;;102.53;45.88;;;18.20;99.90;;;;;;4999856;28;20041;-71
2023/05/09 08:21:11;;;;;;;102.03;46.10;;;18.30;99.90;;;;;;5000031;28;20427;-71
2023/05/09 08:23:36;;;;;;;88.18;43.83;;;18.30;99.90;;;;;;5000034;28;20056;-71
2023/05/09 08:26:02;;;;;;;87.93;44.42;;;18.20;99.90;;;;;;5000030;28;20039;-74
2023/05/09 08:28:28;;;;;;;83.60;42.63;;;18.30;99.90;;;;;;4999814;28;20053;-73
2023/05/09 08:30:55;;;;;;;94.97;43.95;;;18.50;99.90;;;;;;4999529;28;20050;-73
2023/05/09 08:33:21;;;;;;;85.05;42.47;;;18.30;99.90;;;;;;4982383;28;20046;-73
2023/05/09 08:35:51;;;;;;;92.60;44.25;;;18.30;99.90;;;;;;4999622;28;20048;-73
2023/05/09 08:38:16;;;;;;;78.15;40.28;;;18.40;99.90;;;;;;4999120;28;20076;-73
2023/05/09 08:40:42;;;;;;;82.72;41.08;;;18.40;99.90;;;;;;4999407;28;20074;-73
2023/05/09 08:43:08;;;;;;;78.50;40.40;;;18.40;99.90;;;;;;4999429;28;20471;-74
2023/05/09 08:45:40;;;;;;;83.32;41.67;;;18.40;99.90;;;;;;4999589;28;20045;-73
2023/05/09 08:48:07;;;;;;;87.57;42.45;;;18.30;99.90;;;;;;4999492;28;20042;-73
2023/05/09 08:50:34;;;;;;;88.28;42.90;;;18.20;99.90;;;;;;4982071;28;20034;-73
2023/05/09 08:53:00;;;;;;;84.85;40.65;;;18.40;99.90;;;;;;4999263;28;20043;-74
2023/05/09 08:55:26;;;;;;;88.93;41.10;;;18.40;99.90;;;;;;4999283;28;20042;-73
2023/05/09 08:57:52;;;;;;;81.20;39.75;;;18.60;99.90;;;;;;4981537;28;20038;-74
2023/05/09 09:00:19;;;;;;;80.03;39.85;;;18.50;99.90;;;;;;4999282;28;20038;-73
2023/05/09 09:02:45;;;;;;;86.50;43.05;;;18.20;99.90;;;;;;4999349;28;20051;-73
2023/05/09 09:05:11;;;;;;;90.03;42.75;;;18.20;99.90;;;;;;4999458;28;20042;-74
2023/05/09 09:07:39;;;;;;;83.85;40.50;;;18.20;99.90;;;;;;4981221;28;20078;-74
2023/05/09 09:10:07;;;;;;;75.60;39.20;;;18.20;99.90;;;;;;4999100;28;20034;-73
2023/05/09 09:12:34;;;;;;;82.78;40.63;;;18.40;99.90;;;;;;4999096;28;20323;-74
2023/05/09 09:15:04;;;;;;;77.57;38.55;;;18.50;99.90;;;;;;4998833;28;20046;-71
2023/05/09 09:17:31;;;;;;;83.13;40.40;;;18.70;99.90;;;;;;4999028;28;20038;-73
2023/05/09 09:20:00;;;;;;;77.85;37.47;;;18.80;99.90;;;;;;4998996;28;20038;-69
2023/05/09 09:22:32;;;;;;;69.13;35.90;;;18.90;99.90;;;;;;4998618;28;20499;-73
2023/05/09 09:25:02;;;;;;;66.03;35.70;;;18.80;99.90;;;;;;4998633;28;20100;-72
2023/05/09 09:27:28;;;;;;;68.97;37.35;;;18.60;99.90;;;;;;4999137;28;20038;-73
2023/05/09 09:29:54;;;;;;;72.68;36.45;;;18.60;99.90;;;;;;4999841;28;20038;-73
2023/05/09 09:32:21;;;;;;;66.75;36.03;;;18.70;99.90;;;;;;4998382;28;20046;-73
2023/05/09 09:34:50;;;;;;;65.43;35.50;;;18.70;99.90;;;;;;4998475;28;20053;-72
2023/05/09 09:37:22;;;;;;;64.15;34.08;;;18.80;99.90;;;;;;4998040;28;20058;-72
2023/05/09 09:39:55;;;;;;;67.78;34.13;;;18.60;99.90;;;;;;4998644;28;20034;-72
2023/05/09 09:42:22;;;;;;;59.47;32.30;;;18.90;99.90;;;;;;4997948;28;20343;-72
2023/05/09 09:45:08;;;;;;;60.88;32.78;;;19.00;99.90;;;;;;4998393;28;20046;-72
2023/05/09 09:47:34;;;;;;;58.13;30.92;;;18.80;99.90;;;;;;4998608;28;20427;-73
2023/05/09 09:50:18;;;;;;;57.33;31.70;;;18.80;99.90;;;;;;4998110;28;20073;-73
2023/05/09 09:52:51;;;;;;;56.22;31.40;;;18.80;99.90;;;;;;4998434;28;20045;-73
2023/05/09 09:55:18;;;;;;;53.45;30.48;;;19.10;99.90;;;;;;4998080;28;20443;-74
2023/05/09 09:57:45;;;;;;;59.47;31.80;;;19.30;99.90;;;;;;4997908;28;20125;-75
2023/05/09 10:00:15;;;;;;;55.65;30.88;;;19.40;99.90;;;;;;4989276;28;20047;-74
2023/05/09 10:02:57;;;;;;;50.95;28.75;;;19.20;99.90;;;;;;4996067;28;20038;-74
2023/05/09 10:05:27;;;;;;;55.67;30.85;;;18.90;99.90;;;;;;4998144;28;20066;-73
2023/05/09 10:07:58;;;;;;;54.85;29.98;;;18.80;99.90;;;;;;4996819;28;20435;-74
2023/05/09 10:10:31;;;;;;;50.47;29.35;;;18.90;99.90;;;;;;4998074;28;20490;-74
2023/05/09 10:13:00;;;;;;;51.97;28.17;;;18.70;99.90;;;;;;4997943;28;20038;-74
2023/05/09 10:15:28;;;;;;;56.13;29.02;;;18.80;99.90;;;;;;4997930;28;20128;-76
2023/05/09 10:17:56;;;;;;;59.17;29.73;;;19.00;99.90;;;;;;4997879;28;20048;-75
2023/05/09 10:20:22;;;;;;;49.60;27.80;;;18.90;99.90;;;;;;4997838;28;20081;-75
2023/05/09 10:22:49;;;;;;;41.72;26.27;;;18.90;99.90;;;;;;4997727;28;20092;-76
2023/05/09 10:25:19;;;;;;;42.40;25.00;;;19.00;99.90;;;;;;4997603;28;20038;-75
2023/05/09 10:27:46;;;;;;;43.65;25.85;;;19.10;99.90;;;;;;4997856;28;20089;-77
2023/05/09 10:30:16;;;;;;;46.83;26.55;;;19.20;99.90;;;;;;4997597;28;20038;-74
2023/05/09 10:32:51;;;;;;;42.28;25.25;;;19.40;99.90;;;;;;4997558;28;20077;-73
2023/05/09 10:35:21;;;;;;;44.22;25.55;;;19.40;99.90;;;;;;4997559;28;20081;-73
2023/05/09 10:37:47;;;;;;;40.38;24.02;;;19.50;99.90;;;;;;4997106;28;20046;-74
2023/05/09 10:40:14;;;;;;;38.20;24.63;;;19.50;99.90;;;;;;4997216;28;20376;-74
2023/05/09 10:42:44;;;;;;;41.72;23.58;;;19.60;99.90;;;;;;4976751;28;20094;-73
2023/05/09 10:45:11;;;;;;;38.92;22.73;;;19.60;99.90;;;;;;4978207;28;20113;-74
2023/05/09 10:47:38;;;;;;;35.78;22.95;;;19.70;99.90;;;;;;4977778;28;20043;-72
2023/05/09 10:50:10;;;;;;;39.80;23.58;;;19.40;99.90;;;;;;4965372;28;20078;-72
2023/05/09 10:53:10;;;;;;;42.45;23.40;;;19.30;99.90;;;;;;4977744;28;20339;-73
2023/05/09 10:55:55;;;;;;;39.03;22.77;;;19.40;99.90;;;;;;4967366;28;20053;-73
2023/05/09 10:58:28;;;;;;;32.72;21.65;;;19.20;99.90;;;;;;4973039;28;20043;-71
2023/05/09 11:00:59;;;;;;;35.47;22.52;;;19.30;99.90;;;;;;4977279;28;20101;-74
2023/05/09 11:03:25;;;;;;;32.33;20.55;;;19.40;99.90;;;;;;4977462;28;20035;-73
2023/05/09 11:05:53;;;;;;;36.03;22.65;;;19.30;99.90;;;;;;4977512;28;20043;-73
2023/05/09 11:08:27;;;;;;;37.88;21.17;;;19.20;99.90;;;;;;4963093;28;20432;-74
2023/05/09 11:10:59;;;;;;;33.70;21.15;;;19.20;99.90;;;;;;4958553;28;20043;-75
2023/05/09 11:13:30;;;;;;;35.38;21.17;;;19.30;99.90;;;;;;4960407;28;20106;-74
2023/05/09 11:16:01;;;;;;;36.70;21.95;;;19.40;99.90;;;;;;4971583;28;20371;-74
2023/05/09 11:18:28;;;;;;;35.00;21.55;;;19.40;99.90;;;;;;4971508;28;20098;-73
2023/05/09 11:20:54;;;;;;;37.70;23.27;;;19.20;99.90;;;;;;4961599;28;20039;-73
2023/05/09 11:23:25;;;;;;;33.70;21.25;;;19.40;99.90;;;;;;4961878;28;20035;-74
2023/05/09 11:25:52;;;;;;;36.53;22.38;;;19.50;99.90;;;;;;4960773;28;20098;-78
2023/05/09 11:28:32;;;;;;;34.75;21.08;;;19.30;99.90;;;;;;4960785;28;20078;-79
2023/05/09 11:31:15;;;;;;;36.70;21.95;;;19.40;99.90;;;;;;4961879;28;20043;-73
2023/05/09 11:33:45;;;;;;;34.05;21.10;;;19.20;99.90;;;;;;4961938;28;20047;-74
2023/05/09 11:36:33;;;;;;;36.97;22.33;;;19.50;99.90;;;;;;4962112;28;20102;-74
2023/05/09 11:39:08;;;;;;;37.65;22.40;;;19.80;99.90;;;;;;4962145;28;20086;-75
2023/05/09 11:41:45;;;;;;;35.40;22.02;;;19.80;99.90;;;;;;4966427;28;20077;-75
2023/05/09 11:44:18;;;;;;;38.70;22.50;;;19.70;99.90;;;;;;4981097;28;20082;-75
2023/05/09 11:46:45;;;;;;;36.92;21.42;;;19.80;99.90;;;;;;4981208;28;20047;-75
2023/05/09 11:49:11;;;;;;;36.80;21.02;;;19.90;99.90;;;;;;4980919;28;20428;-75
2023/05/09 11:51:37;;;;;;;38.22;22.60;;;19.90;99.90;;;;;;4983716;28;20045;-81
2023/05/09 11:54:07;;;;;;;33.42;22.00;;;19.80;99.90;;;;;;4982695;28;20042;-84
2023/05/09 11:56:35;;;;;;;32.22;20.23;;;19.80;99.90;;;;;;4983372;28;20339;-72
2023/05/09 11:59:01;;;;;;;28.63;19.45;;;19.70;99.90;;;;;;5000547;28;20038;-72
2023/05/09 12:01:29;;;;;;;29.90;19.65;;;19.90;99.90;;;;;;5000129;28;20038;-72
2023/05/09 12:03:56;;;;;;;28.17;19.58;;;20.20;99.90;;;;;;5000425;28;20065;-72
2023/05/09 12:06:22;;;;;;;27.98;19.10;;;20.30;99.90;;;;;;4999858;28;20031;-80
2023/05/09 12:08:48;;;;;;;30.27;18.83;;;20.50;99.90;;;;;;5000363;28;20049;-72
2023/05/09 12:11:14;;;;;;;32.58;19.02;;;20.40;99.90;;;;;;5000040;28;20475;-72
2023/05/09 12:13:51;;;;;;;32.67;19.77;;;20.60;99.90;;;;;;4982927;28;20121;-72
2023/05/09 12:16:17;;;;;;;30.83;17.88;;;20.60;99.90;;;;;;4999978;28;20038;-72
2023/05/09 12:18:51;;;;;;;25.42;17.15;;;20.50;99.90;;;;;;4999841;28;20081;-72
2023/05/09 12:21:18;;;;;;;24.23;16.35;;;20.50;99.90;;;;;;5000113;28;20097;-72
2023/05/09 12:23:45;;;;;;;24.95;16.48;;;20.50;99.90;;;;;;4999862;28;20050;-72
2023/05/09 12:26:11;;;;;;;21.20;13.95;;;20.70;99.90;;;;;;5000054;28;20038;-72
2023/05/09 12:28:38;;;;;;;25.67;15.30;;;20.90;99.90;;;;;;4999631;28;20034;-72
2023/05/09 12:31:05;;;;;;;23.02;15.30;;;21.10;99.90;;;;;;4998867;28;20049;-72
2023/05/09 12:33:31;;;;;;;23.17;14.63;;;21.10;99.90;;;;;;4999597;28;20335;-72